sensor_id;sensor_type;location;lat;lon;timestamp;pressure;altitude;pressure_sealevel;temperature;humidity
78509;BME280;67802;50.846;7.958;2023-02-22T10:28:18;97437.78;;;21.78;31.77
78509;BME280;67802;50.846;7.958;2023-02-22T10:30:57;97438.19;;;21.84;32.01
78509;BME280;67802;50.846;7.958;2023-02-22T10:33:38;97432.59;;;21.87;32.02
78509;BME280;67802;50.846;7.958;2023-02-22T10:36:05;97431.47;;;21.89;32.09
78509;BME280;67802;50.846;7.958;2023-02-22T10:38:41;97433.66;;;21.94;32.07
78509;BME280;67802;50.846;7.958;2023-02-22T10:41:29;97433.38;;;21.97;32.01
78509;BME280;67802;50.846;7.958;2023-02-22T10:43:55;97428.78;;;21.99;32.17
78509;BME280;67802;50.846;7.958;2023-02-22T10:46:22;97423.19;;;22.02;32.20
78509;BME280;67802;50.846;7.958;2023-02-22T10:48:52;97429.16;;;22.04;32.31
78509;BME280;67802;50.846;7.958;2023-02-22T10:51:19;97428.31;;;22.04;32.41
78509;BME280;67802;50.846;7.958;2023-02-22T10:53:55;97423.88;;;22.04;32.34
78509;BME280;67802;50.846;7.958;2023-02-22T10:56:24;97430.53;;;22.08;32.43
78509;BME280;67802;50.846;7.958;2023-02-22T10:58:53;97423.28;;;22.11;32.43
78509;BME280;67802;50.846;7.958;2023-02-22T11:01:22;97419.94;;;22.08;32.66
78509;BME280;67802;50.846;7.958;2023-02-22T11:04:00;97423.03;;;22.04;32.74
78509;BME280;67802;50.846;7.958;2023-02-22T11:06:28;97424.16;;;22.01;32.71
78509;BME280;67802;50.846;7.958;2023-02-22T11:09:18;97421.63;;;22.09;32.66
78509;BME280;67802;50.846;7.958;2023-02-22T11:11:47;97415.03;;;22.14;32.71
78509;BME280;67802;50.846;7.958;2023-02-22T11:14:28;97416.25;;;22.19;32.82
78509;BME280;67802;50.846;7.958;2023-02-22T11:16:55;97422.50;;;22.18;33.08
78509;BME280;67802;50.846;7.958;2023-02-22T11:19:27;97422.38;;;22.20;33.09
78509;BME280;67802;50.846;7.958;2023-02-22T11:21:56;97412.63;;;22.20;32.82
78509;BME280;67802;50.846;7.958;2023-02-22T11:24:24;97409.84;;;22.22;32.80
78509;BME280;67802;50.846;7.958;2023-02-22T11:26:54;97411.50;;;22.23;33.11
78509;BME280;67802;50.846;7.958;2023-02-22T11:29:29;97408.69;;;22.24;33.05
78509;BME280;67802;50.846;7.958;2023-02-22T11:32:02;97402.13;;;22.29;33.08
78509;BME280;67802;50.846;7.958;2023-02-22T11:39:47;97406.25;;;22.31;33.39
78509;BME280;67802;50.846;7.958;2023-02-22T11:42:26;97400.00;;;22.32;33.21
78509;BME280;67802;50.846;7.958;2023-02-22T11:47:57;97399.69;;;22.35;33.42
78509;BME280;67802;50.846;7.958;2023-02-22T11:53:31;97396.31;;;22.43;33.29
78509;BME280;67802;50.846;7.958;2023-02-22T11:56:14;97400.47;;;22.46;33.28
78509;BME280;67802;50.846;7.958;2023-02-22T11:58:48;97397.84;;;22.46;33.21
78509;BME280;67802;50.846;7.958;2023-02-22T12:01:22;97402.44;;;22.44;33.40
78509;BME280;67802;50.846;7.958;2023-02-22T12:04:19;97392.44;;;22.37;33.33
78509;BME280;67802;50.846;7.958;2023-02-22T12:10:42;97380.72;;;22.40;33.39
78509;BME280;67802;50.846;7.958;2023-02-22T12:21:14;97392.53;;;22.46;33.33
78509;BME280;67802;50.846;7.958;2023-02-22T12:26:17;97384.59;;;22.46;33.68
78509;BME280;67802;50.846;7.958;2023-02-22T12:31:35;97375.66;;;22.47;33.54
78509;BME280;67802;50.846;7.958;2023-02-22T12:34:10;97375.66;;;22.47;33.52
78509;BME280;67802;50.846;7.958;2023-02-22T12:36:44;97367.06;;;22.45;33.53
78509;BME280;67802;50.846;7.958;2023-02-22T12:41:54;97361.22;;;22.41;33.32
78509;BME280;67802;50.846;7.958;2023-02-22T12:44:27;97366.50;;;22.41;33.17
78509;BME280;67802;50.846;7.958;2023-02-22T12:46:55;97368.31;;;22.41;33.33
78509;BME280;67802;50.846;7.958;2023-02-22T12:49:44;97356.75;;;22.42;33.58
78509;BME280;67802;50.846;7.958;2023-02-22T13:03:37;97349.50;;;22.26;33.38
78509;BME280;67802;50.846;7.958;2023-02-22T13:06:24;97350.84;;;21.75;33.74
78509;BME280;67802;50.846;7.958;2023-02-22T13:09:18;97342.41;;;21.90;33.76
78509;BME280;67802;50.846;7.958;2023-02-22T13:15:14;97332.50;;;21.92;33.82
78509;BME280;67802;50.846;7.958;2023-02-22T13:18:57;97338.78;;;21.91;33.80
78509;BME280;67802;50.846;7.958;2023-02-22T13:21:00;97338.09;;;21.89;33.51
78509;BME280;67802;50.846;7.958;2023-02-22T13:26:23;97329.63;;;21.85;33.55
78509;BME280;67802;50.846;7.958;2023-02-22T13:29:04;97332.41;;;21.84;33.55
78509;BME280;67802;50.846;7.958;2023-02-22T13:37:27;97327.59;;;21.79;33.55
78509;BME280;67802;50.846;7.958;2023-02-22T13:40:06;97324.25;;;21.77;33.59
78509;BME280;67802;50.846;7.958;2023-02-22T13:42:54;97319.44;;;21.72;33.69
78509;BME280;67802;50.846;7.958;2023-02-22T13:51:42;97318.59;;;21.72;33.79
78509;BME280;67802;50.846;7.958;2023-02-22T13:54:14;97323.06;;;21.71;33.54
78509;BME280;67802;50.846;7.958;2023-02-22T13:56:44;97315.25;;;21.70;33.75
78509;BME280;67802;50.846;7.958;2023-02-22T14:01:53;97323.19;;;21.70;33.77
78509;BME280;67802;50.846;7.958;2023-02-22T14:06:57;97324.34;;;21.67;33.69
78509;BME280;67802;50.846;7.958;2023-02-22T14:09:48;97322.69;;;21.66;33.74
78509;BME280;67802;50.846;7.958;2023-02-22T14:20:31;97323.50;;;21.67;33.61
78509;BME280;67802;50.846;7.958;2023-02-22T14:25:48;97325.31;;;21.66;33.45
78509;BME280;67802;50.846;7.958;2023-02-22T14:28:35;97320.03;;;21.66;33.67
78509;BME280;67802;50.846;7.958;2023-02-22T14:31:09;97321.69;;;21.67;33.63
78509;BME280;67802;50.846;7.958;2023-02-22T14:34:08;97317.22;;;21.68;33.55
78509;BME280;67802;50.846;7.958;2023-02-22T14:39:21;97317.09;;;21.69;33.50
78509;BME280;67802;50.846;7.958;2023-02-22T14:41:52;97324.03;;;21.70;33.62
78509;BME280;67802;50.846;7.958;2023-02-22T14:44:24;97320.25;;;21.73;33.51
78509;BME280;67802;50.846;7.958;2023-02-22T14:46:50;97321.91;;;21.74;33.63
78509;BME280;67802;50.846;7.958;2023-02-22T14:49:20;97323.59;;;21.75;33.66
78509;BME280;67802;50.846;7.958;2023-02-22T14:51:52;97321.75;;;21.75;33.59
78509;BME280;67802;50.846;7.958;2023-02-22T14:54:33;97327.72;;;21.77;33.51
78509;BME280;67802;50.846;7.958;2023-02-22T14:57:12;97324.09;;;21.78;33.53
78509;BME280;67802;50.846;7.958;2023-02-22T14:59:55;97332.41;;;21.84;33.64
78509;BME280;67802;50.846;7.958;2023-02-22T15:02:21;97322.69;;;21.84;33.49
78509;BME280;67802;50.846;7.958;2023-02-22T15:04:52;97318.22;;;21.85;33.47
78509;BME280;67802;50.846;7.958;2023-02-22T15:07:27;97322.53;;;21.86;33.48
78509;BME280;67802;50.846;7.958;2023-02-22T15:10:38;97321.53;;;21.87;33.54
78509;BME280;67802;50.846;7.958;2023-02-22T15:15:44;97319.59;;;21.89;33.51
78509;BME280;67802;50.846;7.958;2023-02-22T15:18:25;97320.44;;;21.89;33.43
78509;BME280;67802;50.846;7.958;2023-02-22T15:20:56;97312.31;;;21.91;33.52
78509;BME280;67802;50.846;7.958;2023-02-22T15:23:28;97326.22;;;21.93;33.44
78509;BME280;67802;50.846;7.958;2023-02-22T15:25:54;97320.44;;;21.89;33.58
78509;BME280;67802;50.846;7.958;2023-02-22T15:28:22;97317.63;;;21.91;33.43
78509;BME280;67802;50.846;7.958;2023-02-22T15:30:48;97322.09;;;21.90;33.52
78509;BME280;67802;50.846;7.958;2023-02-22T15:33:18;97320.94;;;21.93;33.41
78509;BME280;67802;50.846;7.958;2023-02-22T15:35:57;97324.56;;;21.92;33.58
78509;BME280;67802;50.846;7.958;2023-02-22T15:38:28;97324.56;;;21.92;33.65
78509;BME280;67802;50.846;7.958;2023-02-22T15:41:02;97328.88;;;21.93;33.42
78509;BME280;67802;50.846;7.958;2023-02-22T15:43:28;97322.59;;;21.94;33.40
78509;BME280;67802;50.846;7.958;2023-02-22T15:45:54;97327.91;;;21.94;33.58
78509;BME280;67802;50.846;7.958;2023-02-22T15:48:20;97335.16;;;21.92;33.64
78509;BME280;67802;50.846;7.958;2023-02-22T15:51:06;97329.84;;;21.92;33.62
78509;BME280;67802;50.846;7.958;2023-02-22T15:53:43;97336.00;;;21.92;33.63
78509;BME280;67802;50.846;7.958;2023-02-22T15:56:14;97334.16;;;21.93;33.69
78509;BME280;67802;50.846;7.958;2023-02-22T15:58:43;97333.47;;;21.91;33.59
78509;BME280;67802;50.846;7.958;2023-02-22T16:01:13;97332.88;;;21.97;33.53
78509;BME280;67802;50.846;7.958;2023-02-22T16:03:47;97337.34;;;21.97;33.35
78509;BME280;67802;50.846;7.958;2023-02-22T16:08:55;97338.47;;;21.94;33.70
78509;BME280;67802;50.846;7.958;2023-02-22T16:11:34;97336.81;;;21.93;33.54
78509;BME280;67802;50.846;7.958;2023-02-22T16:14:04;97340.44;;;21.92;33.58
78509;BME280;67802;50.846;7.958;2023-02-22T16:16:33;97343.25;;;21.90;33.48
78509;BME280;67802;50.846;7.958;2023-02-22T16:21:54;97340.72;;;21.89;33.52
78509;BME280;67802;50.846;7.958;2023-02-22T16:24:33;97338.25;;;21.87;33.49
78509;BME280;67802;50.846;7.958;2023-02-22T16:29:43;97338.38;;;21.86;33.61
78509;BME280;67802;50.846;7.958;2023-02-22T16:32:09;97337.69;;;21.84;33.64
78509;BME280;67802;50.846;7.958;2023-02-22T16:34:35;97337.69;;;21.84;33.70
78509;BME280;67802;50.846;7.958;2023-02-22T16:37:01;97341.03;;;21.86;33.74
78509;BME280;67802;50.846;7.958;2023-02-22T16:39:31;97339.38;;;21.85;33.60
78509;BME280;67802;50.846;7.958;2023-02-22T16:42:02;97340.50;;;21.82;33.78
78509;BME280;67802;50.846;7.958;2023-02-22T16:44:28;97346.63;;;21.83;33.39
78509;BME280;67802;50.846;7.958;2023-02-22T16:46:58;97348.56;;;21.81;33.60
78509;BME280;67802;50.846;7.958;2023-02-22T16:49:23;97349.56;;;21.79;33.50
78509;BME280;67802;50.846;7.958;2023-02-22T16:51:55;97354.84;;;21.79;33.63
78509;BME280;67802;50.846;7.958;2023-02-22T16:54:25;97353.03;;;21.80;33.50
78509;BME280;67802;50.846;7.958;2023-02-22T16:56:54;97347.75;;;21.80;33.43
78509;BME280;67802;50.846;7.958;2023-02-22T16:59:21;97348.75;;;21.79;33.63
78509;BME280;67802;50.846;7.958;2023-02-22T17:01:46;97352.50;;;21.76;33.50
78509;BME280;67802;50.846;7.958;2023-02-22T17:04:20;97352.28;;;21.70;33.68
78509;BME280;67802;50.846;7.958;2023-02-22T17:06:47;97348.69;;;21.61;33.71
78509;BME280;67802;50.846;7.958;2023-02-22T17:09:13;97354.06;;;21.41;33.65
78509;BME280;67802;50.846;7.958;2023-02-22T17:11:39;97349.66;;;21.32;34.00
78509;BME280;67802;50.846;7.958;2023-02-22T17:14:05;97346.91;;;21.24;33.84
78509;BME280;67802;50.846;7.958;2023-02-22T17:16:31;97349.19;;;21.18;33.77
78509;BME280;67802;50.846;7.958;2023-02-22T17:18:56;97351.53;;;21.12;33.92
78509;BME280;67802;50.846;7.958;2023-02-22T17:21:21;97356.59;;;21.05;33.83
78509;BME280;67802;50.846;7.958;2023-02-22T17:23:47;97357.84;;;21.01;33.80
78509;BME280;67802;50.846;7.958;2023-02-22T17:26:13;97356.47;;;20.97;33.77
78509;BME280;67802;50.846;7.958;2023-02-22T17:28:39;97363.97;;;20.92;33.82
78509;BME280;67802;50.846;7.958;2023-02-22T17:31:05;97362.59;;;20.87;33.69
78509;BME280;67802;50.846;7.958;2023-02-22T17:33:33;97363.88;;;20.83;33.84
78509;BME280;67802;50.846;7.958;2023-02-22T17:36:00;97366.09;;;20.78;33.65
78509;BME280;67802;50.846;7.958;2023-02-22T17:38:26;97365.38;;;20.76;33.75
78509;BME280;67802;50.846;7.958;2023-02-22T17:40:54;97369.44;;;20.70;33.75
78509;BME280;67802;50.846;7.958;2023-02-22T17:43:21;97364.84;;;20.82;33.73
78509;BME280;67802;50.846;7.958;2023-02-22T17:45:46;97366.63;;;20.92;33.68
78509;BME280;67802;50.846;7.958;2023-02-22T17:48:13;97365.38;;;20.96;33.60
78509;BME280;67802;50.846;7.958;2023-02-22T17:50:40;97370.06;;;21.02;33.59
78509;BME280;67802;50.846;7.958;2023-02-22T17:53:07;97375.88;;;21.05;33.50
78509;BME280;67802;50.846;7.958;2023-02-22T17:55:38;97376.44;;;21.09;33.58
78509;BME280;67802;50.846;7.958;2023-02-22T17:58:06;97376.16;;;21.12;33.61
78509;BME280;67802;50.846;7.958;2023-02-22T18:00:35;97376.69;;;21.16;33.57
78509;BME280;67802;50.846;7.958;2023-02-22T18:03:07;97380.72;;;21.20;33.62
78509;BME280;67802;50.846;7.958;2023-02-22T18:05:38;97389.16;;;21.24;33.66
78509;BME280;67802;50.846;7.958;2023-02-22T18:08:03;97387.22;;;21.26;33.70
78509;BME280;67802;50.846;7.958;2023-02-22T18:10:28;97386.09;;;21.28;33.65
78509;BME280;67802;50.846;7.958;2023-02-22T18:12:54;97387.09;;;21.27;33.63
78509;BME280;67802;50.846;7.958;2023-02-22T18:15:21;97381.66;;;21.29;33.68
78509;BME280;67802;50.846;7.958;2023-02-22T18:17:47;97390.94;;;21.33;33.72
78509;BME280;67802;50.846;7.958;2023-02-22T18:20:14;97376.63;;;21.35;33.74
78509;BME280;67802;50.846;7.958;2023-02-22T18:22:43;97380.78;;;21.38;33.70
78509;BME280;67802;50.846;7.958;2023-02-22T18:25:10;97373.53;;;21.40;33.70
78509;BME280;67802;50.846;7.958;2023-02-22T18:27:38;97374.22;;;21.42;33.86
78509;BME280;67802;50.846;7.958;2023-02-22T18:30:04;97373.94;;;21.45;33.71
78509;BME280;67802;50.846;7.958;2023-02-22T18:32:30;97376.41;;;21.47;33.64
78509;BME280;67802;50.846;7.958;2023-02-22T18:34:56;97368.19;;;21.50;33.64
78509;BME280;67802;50.846;7.958;2023-02-22T18:37:22;97372.38;;;21.53;33.75
78509;BME280;67802;50.846;7.958;2023-02-22T18:39:47;97375.69;;;21.55;33.81
78509;BME280;67802;50.846;7.958;2023-02-22T18:42:13;97371.09;;;21.57;33.72
78509;BME280;67802;50.846;7.958;2023-02-22T18:44:39;97369.97;;;21.59;33.73
78509;BME280;67802;50.846;7.958;2023-02-22T18:47:04;97369.84;;;21.61;33.42
78509;BME280;67802;50.846;7.958;2023-02-22T18:49:30;97370.53;;;21.63;33.80
78509;BME280;67802;50.846;7.958;2023-02-22T18:51:55;97367.91;;;21.63;33.69
78509;BME280;67802;50.846;7.958;2023-02-22T18:54:20;97371.22;;;21.65;33.77
78509;BME280;67802;50.846;7.958;2023-02-22T18:56:46;97372.03;;;21.66;33.72
78509;BME280;67802;50.846;7.958;2023-02-22T18:59:11;97364.81;;;21.68;33.85
78509;BME280;67802;50.846;7.958;2023-02-22T19:01:38;97363.00;;;21.68;33.79
78509;BME280;67802;50.846;7.958;2023-02-22T19:04:08;97371.75;;;21.69;33.77
78509;BME280;67802;50.846;7.958;2023-02-22T19:06:35;97367.31;;;21.69;33.95
78509;BME280;67802;50.846;7.958;2023-02-22T19:09:01;97362.84;;;21.70;33.85
78509;BME280;67802;50.846;7.958;2023-02-22T19:11:26;97365.66;;;21.68;33.83
78509;BME280;67802;50.846;7.958;2023-02-22T19:13:54;97366.94;;;21.64;33.87
78509;BME280;67802;50.846;7.958;2023-02-22T19:16:21;97368.06;;;21.52;33.94
78509;BME280;67802;50.846;7.958;2023-02-22T19:18:49;97359.63;;;21.38;33.94
78509;BME280;67802;50.846;7.958;2023-02-22T19:21:16;97360.78;;;21.35;34.06
78509;BME280;67802;50.846;7.958;2023-02-22T19:23:42;97365.72;;;21.48;33.95
78509;BME280;67802;50.846;7.958;2023-02-22T19:26:12;97369.44;;;21.56;33.87
78509;BME280;67802;50.846;7.958;2023-02-22T19:28:37;97368.16;;;21.60;33.98
78509;BME280;67802;50.846;7.958;2023-02-22T19:31:13;97371.63;;;21.60;33.80
78509;BME280;67802;50.846;7.958;2023-02-22T19:33:39;97371.53;;;21.62;33.92
78509;BME280;67802;50.846;7.958;2023-02-22T19:36:05;97377.63;;;21.62;33.93
78509;BME280;67802;50.846;7.958;2023-02-22T19:38:30;97361.78;;;21.62;33.93
78509;BME280;67802;50.846;7.958;2023-02-22T19:40:55;97370.38;;;21.64;33.68
78509;BME280;67802;50.846;7.958;2023-02-22T19:43:21;97367.91;;;21.63;33.84
78509;BME280;67802;50.846;7.958;2023-02-22T19:45:46;97368.25;;;21.40;33.99
78509;BME280;67802;50.846;7.958;2023-02-22T19:48:11;97378.22;;;21.18;34.03
78509;BME280;67802;50.846;7.958;2023-02-22T19:50:38;97372.84;;;21.10;34.15
78509;BME280;67802;50.846;7.958;2023-02-22T19:53:12;97366.13;;;21.16;34.20
78509;BME280;67802;50.846;7.958;2023-02-22T19:55:38;97369.41;;;21.28;33.95
78509;BME280;67802;50.846;7.958;2023-02-22T19:58:03;97371.63;;;21.32;34.09
78509;BME280;67802;50.846;7.958;2023-02-22T20:00:28;97368.53;;;21.37;33.99
78509;BME280;67802;50.846;7.958;2023-02-22T20:03:00;97371.88;;;21.39;33.92
78509;BME280;67802;50.846;7.958;2023-02-22T20:05:31;97365.47;;;21.42;33.82
78509;BME280;67802;50.846;7.958;2023-02-22T20:07:56;97367.97;;;21.43;33.92
78509;BME280;67802;50.846;7.958;2023-02-22T20:10:22;97365.19;;;21.45;33.85
78509;BME280;67802;50.846;7.958;2023-02-22T20:12:47;97374.78;;;21.46;34.02
78509;BME280;67802;50.846;7.958;2023-02-22T20:15:12;97374.63;;;21.47;34.13
78509;BME280;67802;50.846;7.958;2023-02-22T20:17:37;97377.94;;;21.49;33.81
78509;BME280;67802;50.846;7.958;2023-02-22T20:20:03;97376.81;;;21.52;33.91
78509;BME280;67802;50.846;7.958;2023-02-22T20:22:30;97384.44;;;21.55;33.83
78509;BME280;67802;50.846;7.958;2023-02-22T20:24:55;97380.00;;;21.56;33.95
78509;BME280;67802;50.846;7.958;2023-02-22T20:27:21;97391.94;;;21.60;33.97
78509;BME280;67802;50.846;7.958;2023-02-22T20:29:48;97385.69;;;21.61;34.01
78509;BME280;67802;50.846;7.958;2023-02-22T20:32:15;97387.22;;;21.63;34.01
78509;BME280;67802;50.846;7.958;2023-02-22T20:34:44;97387.91;;;21.66;33.95
78509;BME280;67802;50.846;7.958;2023-02-22T20:37:10;97393.06;;;21.67;34.06
78509;BME280;67802;50.846;7.958;2023-02-22T20:39:35;97384.97;;;21.69;34.15
78509;BME280;67802;50.846;7.958;2023-02-22T20:42:01;97385.66;;;21.71;34.05
78509;BME280;67802;50.846;7.958;2023-02-22T20:44:28;97391.47;;;21.74;34.03
78509;BME280;67802;50.846;7.958;2023-02-22T20:46:54;97392.31;;;21.75;33.93
78509;BME280;67802;50.846;7.958;2023-02-22T20:49:20;97394.78;;;21.76;33.93
78509;BME280;67802;50.846;7.958;2023-02-22T20:51:47;97385.88;;;21.77;34.01
78509;BME280;67802;50.846;7.958;2023-02-22T20:54:12;97386.56;;;21.79;33.96
78509;BME280;67802;50.846;7.958;2023-02-22T20:56:40;97390.88;;;21.81;33.96
78509;BME280;67802;50.846;7.958;2023-02-22T20:59:06;97383.63;;;21.83;34.09
78509;BME280;67802;50.846;7.958;2023-02-22T21:01:32;97385.28;;;21.84;34.12
78509;BME280;67802;50.846;7.958;2023-02-22T21:04:04;97381.66;;;21.85;33.97
78509;BME280;67802;50.846;7.958;2023-02-22T21:06:30;97380.56;;;21.87;33.98
78509;BME280;67802;50.846;7.958;2023-02-22T21:08:58;97385.84;;;21.87;33.92
78509;BME280;67802;50.846;7.958;2023-02-22T21:11:26;97388.31;;;21.89;34.04
78509;BME280;67802;50.846;7.958;2023-02-22T21:13:52;97385.56;;;21.90;34.09
78509;BME280;67802;50.846;7.958;2023-02-22T21:16:20;97379.28;;;21.91;34.05
78509;BME280;67802;50.846;7.958;2023-02-22T21:18:49;97384.41;;;21.93;34.03
78509;BME280;67802;50.846;7.958;2023-02-22T21:21:15;97382.63;;;21.93;34.08
78509;BME280;67802;50.846;7.958;2023-02-22T21:23:41;97379.81;;;21.95;34.11
78509;BME280;67802;50.846;7.958;2023-02-22T21:26:13;97382.44;;;21.95;33.96
78509;BME280;67802;50.846;7.958;2023-02-22T21:28:39;97386.66;;;21.88;34.04
78509;BME280;67802;50.846;7.958;2023-02-22T21:31:07;97385.59;;;21.81;34.05
78509;BME280;67802;50.846;7.958;2023-02-22T21:33:33;97383.34;;;21.86;34.05
78509;BME280;67802;50.846;7.958;2023-02-22T21:36:03;97383.03;;;21.89;34.11
78509;BME280;67802;50.846;7.958;2023-02-22T21:38:46;97375.78;;;21.91;34.03
78509;BME280;67802;50.846;7.958;2023-02-22T21:41:13;97385.38;;;21.92;34.04
78509;BME280;67802;50.846;7.958;2023-02-22T21:43:39;97382.75;;;21.92;34.08
78509;BME280;67802;50.846;7.958;2023-02-22T21:46:06;97382.75;;;21.92;34.08
78509;BME280;67802;50.846;7.958;2023-02-22T21:48:36;97390.69;;;21.92;34.07
78509;BME280;67802;50.846;7.958;2023-02-22T21:51:10;97390.69;;;21.92;34.18
78509;BME280;67802;50.846;7.958;2023-02-22T21:53:42;97381.94;;;21.91;34.00
78509;BME280;67802;50.846;7.958;2023-02-22T21:56:10;97386.38;;;21.91;33.93
78509;BME280;67802;50.846;7.958;2023-02-22T21:58:36;97378.44;;;21.91;34.13
78509;BME280;67802;50.846;7.958;2023-02-22T22:01:05;97378.72;;;21.88;33.92
78509;BME280;67802;50.846;7.958;2023-02-22T22:03:31;97377.22;;;21.85;34.03
78509;BME280;67802;50.846;7.958;2023-02-22T22:05:57;97376.97;;;21.78;34.09
78509;BME280;67802;50.846;7.958;2023-02-22T22:08:24;97382.25;;;21.78;33.98
78509;BME280;67802;50.846;7.958;2023-02-22T22:10:52;97373.34;;;21.79;33.99
78509;BME280;67802;50.846;7.958;2023-02-22T22:13:22;97376.84;;;21.80;34.13
78509;BME280;67802;50.846;7.958;2023-02-22T22:15:49;97378.63;;;21.79;34.06
78509;BME280;67802;50.846;7.958;2023-02-22T22:18:15;97383.09;;;21.79;34.09
78509;BME280;67802;50.846;7.958;2023-02-22T22:20:40;97377.13;;;21.77;34.07
78509;BME280;67802;50.846;7.958;2023-02-22T22:23:08;97381.44;;;21.78;34.15
78509;BME280;67802;50.846;7.958;2023-02-22T22:25:33;97386.88;;;21.76;34.08
78509;BME280;67802;50.846;7.958;2023-02-22T22:28:03;97380.88;;;21.74;34.05
78509;BME280;67802;50.846;7.958;2023-02-22T22:30:29;97380.88;;;21.74;34.02
78509;BME280;67802;50.846;7.958;2023-02-22T22:32:54;97384.50;;;21.73;34.06
78509;BME280;67802;50.846;7.958;2023-02-22T22:35:20;97392.44;;;21.73;34.09
78509;BME280;67802;50.846;7.958;2023-02-22T22:37:46;97386.50;;;21.71;34.03
78509;BME280;67802;50.846;7.958;2023-02-22T22:40:16;97389.16;;;21.71;33.99
78509;BME280;67802;50.846;7.958;2023-02-22T22:42:41;97379.56;;;21.70;33.97
78509;BME280;67802;50.846;7.958;2023-02-22T22:45:08;97386.63;;;21.70;34.00
78509;BME280;67802;50.846;7.958;2023-02-22T22:47:39;97388.47;;;21.69;34.08
78509;BME280;67802;50.846;7.958;2023-02-22T22:50:12;97382.50;;;21.67;33.94
78509;BME280;67802;50.846;7.958;2023-02-22T22:52:38;97385.13;;;21.67;34.21
78509;BME280;67802;50.846;7.958;2023-02-22T22:55:04;97389.56;;;21.67;34.19
78509;BME280;67802;50.846;7.958;2023-02-22T22:57:34;97394.03;;;21.66;34.13
78509;BME280;67802;50.846;7.958;2023-02-22T22:59:59;97395.84;;;21.66;33.86
78509;BME280;67802;50.846;7.958;2023-02-22T23:02:25;97399.31;;;21.66;34.17
78509;BME280;67802;50.846;7.958;2023-02-22T23:04:50;97396.69;;;21.66;34.12
78509;BME280;67802;50.846;7.958;2023-02-22T23:07:16;97404.91;;;21.63;34.00
78509;BME280;67802;50.846;7.958;2023-02-22T23:09:41;97405.88;;;21.62;34.22
78509;BME280;67802;50.846;7.958;2023-02-22T23:12:07;97406.84;;;21.61;34.10
78509;BME280;67802;50.846;7.958;2023-02-22T23:14:36;97400.69;;;21.60;34.07
78509;BME280;67802;50.846;7.958;2023-02-22T23:17:04;97404.31;;;21.59;34.10
78509;BME280;67802;50.846;7.958;2023-02-22T23:19:30;97405.16;;;21.60;34.05
78509;BME280;67802;50.846;7.958;2023-02-22T23:21:56;97401.84;;;21.58;34.05
78509;BME280;67802;50.846;7.958;2023-02-22T23:24:24;97402.66;;;21.58;34.08
78509;BME280;67802;50.846;7.958;2023-02-22T23:26:52;97403.50;;;21.59;34.12
78509;BME280;67802;50.846;7.958;2023-02-22T23:29:20;97401.00;;;21.57;34.20
78509;BME280;67802;50.846;7.958;2023-02-22T23:39:31;97402.66;;;21.58;34.26
78509;BME280;67802;50.846;7.958;2023-02-22T23:41:57;97407.13;;;21.58;33.98
78509;BME280;67802;50.846;7.958;2023-02-22T23:44:27;97407.94;;;21.58;34.10
78509;BME280;67802;50.846;7.958;2023-02-22T23:46:53;97408.78;;;21.59;34.06
78509;BME280;67802;50.846;7.958;2023-02-22T23:49:20;97408.78;;;21.59;34.00
78509;BME280;67802;50.846;7.958;2023-02-22T23:51:46;97403.50;;;21.59;34.12
78509;BME280;67802;50.846;7.958;2023-02-22T23:54:16;97408.78;;;21.59;34.16
78509;BME280;67802;50.846;7.958;2023-02-22T23:56:43;97407.94;;;21.58;34.21
78509;BME280;67802;50.846;7.958;2023-02-22T23:59:13;97408.78;;;21.59;34.15
